Time;durP1;ratioP1;P1;durP2;ratioP2;P2;SDS_P1;SDS_P2;PMS_P1;PMS_P2;Temp;Humidity;BMP_temperature;BMP_pressure;BME280_temperature;BME280_humidity;BME280_pressure;Samples;Min_cycle;Max_cycle;Signal;HPM_P1;HPM_P2
2021/09/02 00:00:37;;;;;;;5.87;3.23;;;;;;;15.93;75.17;99834.70;1674549;84;21937;-71
2021/09/02 00:03:04;;;;;;;5.43;3.63;;;;;;;15.91;75.03;99834.77;1677189;84;22358;-71
2021/09/02 00:05:31;;;;;;;6.13;3.27;;;;;;;15.88;75.09;99831.34;1672900;84;22254;-71
2021/09/02 00:07:58;;;;;;;5.10;3.43;;;;;;;15.88;75.17;99838.08;1681434;84;21518;-71
2021/09/02 00:10:26;;;;;;;5.47;3.80;;;;;;;15.84;75.05;99833.08;1669306;84;21669;-70
2021/09/02 00:12:54;;;;;;;6.90;4.23;;;;;;;15.81;74.50;99833.14;1677765;83;21167;-70
2021/09/02 00:15:21;;;;;;;8.23;4.23;;;;;;;15.77;74.00;99832.17;1671360;84;21604;-71
2021/09/02 00:17:48;;;;;;;7.23;4.23;;;;;;;15.76;73.85;99836.50;1671970;84;21337;-71
2021/09/02 00:20:15;;;;;;;6.63;4.50;;;;;;;15.70;73.85;99832.61;1676308;84;21015;-71
2021/09/02 00:22:42;;;;;;;6.80;4.50;;;;;;;15.70;73.72;99831.27;1673565;84;22290;-70
2021/09/02 00:25:10;;;;;;;7.23;4.43;;;;;;;15.68;73.68;99837.50;1674325;84;21906;-70
2021/09/02 00:27:36;;;;;;;6.63;4.47;;;;;;;15.66;73.65;99840.22;1675241;84;21825;-71
2021/09/02 00:30:05;;;;;;;9.63;4.80;;;;;;;15.62;73.73;99838.70;1681293;83;22312;-71
2021/09/02 00:32:32;;;;;;;7.97;4.70;;;;;;;15.60;73.83;99840.92;1688275;83;22027;-71
2021/09/02 00:34:59;;;;;;;7.07;4.90;;;;;;;15.59;73.92;99839.87;1677081;83;22028;-71
2021/09/02 00:37:25;;;;;;;6.87;4.60;;;;;;;15.58;74.08;99839.08;1678388;84;21738;-71
2021/09/02 00:39:52;;;;;;;8.60;5.30;;;;;;;15.55;74.28;99841.59;1663139;84;21832;-71
2021/09/02 00:42:18;;;;;;;8.13;5.00;;;;;;;15.51;74.28;99838.72;1666536;84;21709;-71
2021/09/02 00:44:46;;;;;;;9.67;5.03;;;;;;;15.48;74.34;99842.02;1666115;84;21778;-72
2021/09/02 00:47:18;;;;;;;7.53;4.47;;;;;;;15.43;74.31;99858.28;1661528;84;21042;-72
2021/09/02 00:49:45;;;;;;;;;;;;;;;15.39;74.36;99858.66;1657316;84;21096;-71
2021/09/02 00:52:21;;;;;;;7.60;4.83;;;;;;;15.33;74.48;99861.22;1652842;85;20226;-71
2021/09/02 00:54:54;;;;;;;7.73;4.70;;;;;;;15.28;74.63;99864.84;1656512;85;21910;-71
2021/09/02 00:57:23;;;;;;;7.30;5.00;;;;;;;15.24;74.82;99857.92;1654502;85;22226;-71
2021/09/02 00:59:51;;;;;;;8.90;5.00;;;;;;;15.19;74.87;99861.28;1665368;84;21789;-71
2021/09/02 01:02:19;;;;;;;8.90;4.70;;;;;;;15.14;74.78;99862.20;1660084;84;21766;-71
2021/09/02 01:04:46;;;;;;;8.37;4.60;;;;;;;15.09;74.89;99862.30;1662352;84;22030;-72
2021/09/02 01:07:12;;;;;;;7.70;4.63;;;;;;;15.06;75.30;99870.19;1661190;84;21790;-71
2021/09/02 01:09:42;;;;;;;7.97;5.33;;;;;;;15.02;75.47;99867.31;1668084;84;22252;-72
2021/09/02 01:12:35;;;;;;;8.70;5.03;;;;;;;14.96;75.63;99873.89;1658089;84;21761;-71
2021/09/02 01:15:25;;;;;;;8.13;5.57;;;;;;;14.90;75.84;99873.75;1662525;84;21837;-71
2021/09/02 01:17:55;;;;;;;7.80;5.10;;;;;;;14.84;76.21;99876.30;1663061;84;21743;-71
2021/09/02 01:20:25;;;;;;;8.87;5.47;;;;;;;14.72;76.84;99874.14;1665044;84;21911;-71
2021/09/02 01:22:55;;;;;;;8.10;5.47;;;;;;;14.72;76.84;99874.14;1660658;84;21657;-72
2021/09/02 01:25:25;;;;;;;9.70;5.83;;;;;;;14.68;76.92;99873.95;1662736;84;21855;-71
2021/09/02 01:27:58;;;;;;;7.85;5.37;;;;;;;14.64;77.03;99876.19;1660524;83;21251;-72
2021/09/02 01:30:25;;;;;;;8.03;5.05;;;;;;;14.61;77.21;99874.91;1622735;86;21209;-71
2021/09/02 01:32:53;;;;;;;7.17;5.33;;;;;;;14.60;77.51;99869.83;1664993;84;22288;-70
2021/09/02 01:35:21;;;;;;;9.33;5.50;;;;;;;14.55;77.65;99869.39;1637595;86;22220;-71
2021/09/02 01:37:52;;;;;;;9.20;5.90;;;;;;;14.53;77.75;99866.98;1660148;84;21806;-71
2021/09/02 01:40:38;;;;;;;7.62;5.83;;;;;;;14.51;77.99;99868.38;1670480;84;21790;-71
2021/09/02 01:43:07;;;;;;;9.57;5.47;;;;;;;14.49;78.11;99877.27;1626145;86;21077;-71
2021/09/02 01:45:35;;;;;;;7.97;6.00;;;;;;;14.46;78.36;99868.47;1688971;84;21574;-71
2021/09/02 01:48:03;;;;;;;10.10;5.40;;;;;;;14.43;78.63;99865.82;1660957;84;21562;-71
2021/09/02 01:50:32;;;;;;;10.57;6.00;;;;;;;14.45;78.82;99878.42;1679241;84;22186;-71
2021/09/02 01:53:01;;;;;;;9.93;5.90;;;;;;;14.44;79.05;99870.09;1678220;83;21810;-71
2021/09/02 01:55:28;;;;;;;8.17;6.00;;;;;;;14.42;79.03;99870.16;1663817;84;21581;-70
2021/09/02 01:57:55;;;;;;;9.30;5.60;;;;;;;14.42;79.39;99864.80;1664258;84;21788;-70
2021/09/02 02:00:22;;;;;;;9.07;5.97;;;;;;;14.44;79.66;99866.61;1669400;84;21662;-70
2021/09/02 02:02:49;;;;;;;9.27;5.60;;;;;;;14.43;79.61;99868.51;1654011;84;21609;-71
2021/09/02 02:05:17;;;;;;;8.33;5.67;;;;;;;14.42;79.93;99864.24;1627173;86;21848;-71
2021/09/02 02:07:43;;;;;;;9.10;5.97;;;;;;;14.45;80.33;99871.70;1673507;84;22073;-71
2021/09/02 02:10:14;;;;;;;7.90;5.60;;;;;;;14.45;80.13;99868.22;1673051;84;21619;-71
2021/09/02 02:12:42;;;;;;;8.83;6.00;;;;;;;14.45;80.13;99868.22;1668738;84;22244;-72
2021/09/02 02:15:10;;;;;;;9.47;6.00;;;;;;;14.44;80.11;99871.98;1671280;84;22356;-72
2021/09/02 02:17:38;;;;;;;9.60;6.40;;;;;;;14.43;80.37;99870.41;1673104;84;21863;-71
2021/09/02 02:20:08;;;;;;;10.27;5.80;;;;;;;14.43;80.51;99860.45;1671949;84;21781;-71
2021/09/02 02:22:35;;;;;;;10.70;6.20;;;;;;;14.42;80.68;99859.42;1697878;82;21732;-72
2021/09/02 02:25:02;;;;;;;10.70;6.10;;;;;;;14.44;80.94;99859.89;1674087;84;22259;-72
2021/09/02 02:27:29;;;;;;;8.40;5.77;;;;;;;14.45;80.89;99866.88;1689123;83;21751;-71
2021/09/02 02:29:58;;;;;;;11.07;6.27;;;;;;;14.45;80.89;99866.88;1672820;84;21652;-71
2021/09/02 02:32:28;;;;;;;10.43;6.37;;;;;;;14.46;81.09;99859.85;1666066;84;21746;-73
2021/09/02 02:34:55;;;;;;;9.10;6.67;;;;;;;14.50;81.37;99872.14;1673263;84;21599;-72
2021/09/02 02:37:21;;;;;;;8.57;5.97;;;;;;;14.49;81.61;99859.80;1627342;86;21725;-71
2021/09/02 02:39:48;;;;;;;9.77;6.17;;;;;;;14.49;81.61;99859.80;1624122;86;22366;-72
2021/09/02 02:42:15;;;;;;;9.40;6.13;;;;;;;14.51;81.52;99868.38;1626342;86;21883;-71
2021/09/02 02:44:44;;;;;;;8.13;5.60;;;;;;;14.53;81.72;99862.95;1657828;84;21800;-72
2021/09/02 02:47:11;;;;;;;9.83;6.20;;;;;;;14.57;81.92;99874.45;1611969;86;22534;-71
2021/09/02 02:49:38;;;;;;;8.40;5.77;;;;;;;14.58;81.96;99867.97;1656573;85;21814;-72
2021/09/02 02:52:06;;;;;;;9.13;6.07;;;;;;;14.58;82.04;99875.52;1624440;88;21860;-72
2021/09/02 02:54:34;;;;;;;9.20;6.30;;;;;;;14.60;82.08;99879.23;1643545;86;21758;-73
2021/09/02 02:57:01;;;;;;;8.83;6.50;;;;;;;14.58;82.14;99885.44;1659462;83;21762;-71
2021/09/02 02:59:29;;;;;;;8.37;6.80;;;;;;;14.57;82.17;99884.65;1653139;84;22350;-72
2021/09/02 03:01:56;;;;;;;9.47;6.67;;;;;;;14.58;82.14;99879.55;1665342;84;21764;-72
2021/09/02 03:04:24;;;;;;;9.97;7.23;;;;;;;14.58;82.24;99883.58;1667571;84;21795;-71
2021/09/02 03:06:50;;;;;;;9.83;7.37;;;;;;;14.57;82.17;99882.52;1664677;84;22293;-72
2021/09/02 03:09:17;;;;;;;11.10;7.43;;;;;;;14.55;82.06;99873.42;1663678;84;21819;-72
2021/09/02 03:11:44;;;;;;;9.73;7.57;;;;;;;14.53;82.33;99875.05;1675256;83;22422;-72
2021/09/02 03:14:13;;;;;;;10.80;7.50;;;;;;;14.51;82.06;99871.06;1678740;84;21800;-72
2021/09/02 03:16:40;;;;;;;9.80;7.17;;;;;;;14.46;82.14;99876.52;1670959;84;22656;-72
2021/09/02 03:19:07;;;;;;;12.03;7.97;;;;;;;14.42;82.32;99879.57;1665359;84;21800;-72
2021/09/02 03:21:35;;;;;;;10.00;7.43;;;;;;;14.38;82.39;99874.00;1664601;85;21772;-72
2021/09/02 03:24:03;;;;;;;10.83;7.80;;;;;;;14.34;82.57;99878.36;1672346;83;23598;-71
2021/09/02 03:26:29;;;;;;;10.20;7.30;;;;;;;14.33;82.29;99892.89;1664444;84;22241;-71
2021/09/02 03:28:59;;;;;;;10.23;7.20;;;;;;;14.33;82.29;99892.89;1658800;84;21646;-71
2021/09/02 03:31:25;;;;;;;8.43;6.47;;;;;;;14.34;82.72;99885.07;1658769;84;21785;-72
2021/09/02 03:33:52;;;;;;;11.83;7.23;;;;;;;14.36;82.58;99890.16;1622112;86;21812;-71
2021/09/02 03:36:20;;;;;;;12.30;7.50;;;;;;;14.39;82.44;99884.98;1659902;84;21770;-71
2021/09/02 03:38:48;;;;;;;9.23;6.90;;;;;;;14.41;82.23;99892.21;1664951;84;21730;-71
2021/09/02 03:41:15;;;;;;;10.10;7.17;;;;;;;14.44;82.14;99887.55;1630659;86;21861;-71
2021/09/02 03:43:42;;;;;;;11.03;7.43;;;;;;;14.47;82.06;99896.92;1675824;83;21760;-72
2021/09/02 03:46:09;;;;;;;10.80;7.60;;;;;;;14.50;81.87;99894.98;1669850;84;21796;-71
2021/09/02 03:48:37;;;;;;;10.20;6.67;;;;;;;14.51;81.67;99885.84;1670235;84;21826;-72
2021/09/02 03:51:04;;;;;;;8.43;6.73;;;;;;;14.53;81.53;99893.07;1667349;84;21680;-72
2021/09/02 03:53:30;;;;;;;8.47;6.90;;;;;;;14.56;81.38;99890.34;1668972;84;21722;-72
2021/09/02 03:55:57;;;;;;;11.87;6.70;;;;;;;14.60;81.29;99892.67;1660982;84;21698;-71
2021/09/02 03:58:24;;;;;;;9.67;6.70;;;;;;;14.62;80.88;99897.20;1666332;84;21833;-71
2021/09/02 04:00:51;;;;;;;9.07;6.70;;;;;;;14.63;80.93;99896.89;1663693;85;21750;-72
2021/09/02 04:03:18;;;;;;;8.37;6.37;;;;;;;14.64;80.61;99898.50;1669343;84;21665;-71
2021/09/02 04:05:44;;;;;;;8.00;6.40;;;;;;;14.64;80.63;99902.53;1688344;82;21708;-72
2021/09/02 04:08:11;;;;;;;9.50;6.83;;;;;;;14.63;80.49;99896.10;1661886;84;21817;-71
2021/09/02 04:10:38;;;;;;;8.13;6.27;;;;;;;14.67;80.25;99905.94;1659619;84;21912;-72
2021/09/02 04:13:05;;;;;;;8.63;5.90;;;;;;;14.68;80.10;99900.05;1652744;84;21815;-72
2021/09/02 04:15:31;;;;;;;8.83;6.17;;;;;;;14.66;79.96;99901.67;1682054;83;21768;-70
2021/09/02 04:17:58;;;;;;;8.13;5.50;;;;;;;14.67;80.05;99920.73;1662819;84;22089;-71
2021/09/02 04:20:25;;;;;;;7.47;6.03;;;;;;;14.68;79.87;99906.77;1659324;84;21786;-71
2021/09/02 04:22:51;;;;;;;8.53;5.93;;;;;;;14.68;79.80;99908.90;1657449;84;21751;-71
2021/09/02 04:25:18;;;;;;;10.17;6.10;;;;;;;14.70;79.51;99914.75;1627769;86;21794;-71
2021/09/02 04:27:45;;;;;;;8.50;5.50;;;;;;;14.72;79.50;99911.78;1639750;86;22283;-72
2021/09/02 04:30:13;;;;;;;7.77;5.50;;;;;;;14.74;79.34;99917.11;1624259;86;21826;-72
2021/09/02 04:32:42;;;;;;;7.87;5.10;;;;;;;14.76;79.02;99916.80;1624658;87;21743;-71
2021/09/02 04:35:10;;;;;;;7.53;5.37;;;;;;;14.77;78.76;99918.38;1620161;86;22403;-72
2021/09/02 04:37:59;;;;;;;8.20;5.33;;;;;;;14.78;78.43;99919.44;1677358;84;22650;-71
2021/09/02 04:40:25;;;;;;;7.93;5.00;;;;;;;14.79;77.85;99906.79;1616508;87;21791;-71
2021/09/02 04:42:53;;;;;;;7.90;4.97;;;;;;;14.78;77.33;99922.13;1619554;87;22402;-73
2021/09/02 04:45:21;;;;;;;7.83;5.10;;;;;;;14.80;77.10;99921.02;1634874;87;21812;-72
2021/09/02 04:47:50;;;;;;;7.30;5.33;;;;;;;14.80;76.87;99926.40;1624812;86;21815;-72
2021/09/02 04:50:16;;;;;;;7.57;4.67;;;;;;;14.77;76.73;99927.27;1618618;87;21771;-73
2021/09/02 04:52:43;;;;;;;7.10;5.00;;;;;;;14.77;76.31;99919.72;1614257;87;21863;-74
2021/09/02 04:55:13;;;;;;;7.17;4.90;;;;;;;14.77;76.36;99934.52;1599657;88;21767;-74
2021/09/02 04:57:41;;;;;;;8.47;4.83;;;;;;;14.77;76.27;99921.89;1600597;88;23099;-74
2021/09/02 05:00:10;;;;;;;7.53;4.60;;;;;;;14.80;76.29;99918.34;1606652;88;21768;-73
2021/09/02 05:02:37;;;;;;;10.33;5.47;;;;;;;14.82;76.58;99917.50;1599834;88;21829;-75
2021/09/02 05:05:05;;;;;;;8.43;5.10;;;;;;;14.87;76.58;99926.78;1604200;87;21778;-74
2021/09/02 05:07:34;;;;;;;8.57;5.27;;;;;;;14.89;76.43;99924.61;1604842;88;21819;-73
2021/09/02 05:10:06;;;;;;;8.07;5.00;;;;;;;14.94;76.11;99923.16;1600820;86;21836;-72
2021/09/02 05:12:34;;;;;;;9.53;5.10;;;;;;;14.94;75.84;99915.89;1594557;88;21885;-72
2021/09/02 05:15:00;;;;;;;8.47;5.30;;;;;;;14.98;75.41;99920.11;1604694;87;21794;-72
2021/09/02 05:17:27;;;;;;;11.20;4.90;;;;;;;15.00;75.18;99930.83;1598311;88;21860;-73
2021/09/02 05:19:54;;;;;;;8.73;5.43;;;;;;;15.01;74.86;99914.14;1604179;87;21827;-73
2021/09/02 05:22:21;;;;;;;10.03;5.37;;;;;;;15.04;74.37;99915.41;1599523;88;21042;-72
2021/09/02 05:24:48;;;;;;;9.07;5.47;;;;;;;15.11;73.92;99926.02;1614974;86;21845;-73
2021/09/02 05:27:14;;;;;;;8.73;4.90;;;;;;;15.11;73.92;99926.02;1603294;88;21148;-71
2021/09/02 05:29:41;;;;;;;8.20;5.30;;;;;;;15.16;74.15;99931.27;1601210;88;21783;-72
2021/09/02 05:32:08;;;;;;;7.17;5.20;;;;;;;15.19;73.87;99927.19;1603578;86;21879;-70
2021/09/02 05:34:35;;;;;;;10.40;5.50;;;;;;;15.18;73.71;99912.94;1602320;87;21833;-71
2021/09/02 05:37:04;;;;;;;6.77;5.07;;;;;;;15.17;73.91;99915.39;1603509;88;21768;-72
2021/09/02 05:39:32;;;;;;;7.37;5.07;;;;;;;15.14;74.01;99928.11;1600917;88;21704;-72
2021/09/02 05:41:59;;;;;;;7.40;5.73;;;;;;;15.10;74.19;99917.68;1603571;88;21214;-72
2021/09/02 05:44:25;;;;;;;8.90;5.13;;;;;;;15.06;74.37;99923.42;1605322;88;21830;-72
2021/09/02 05:46:55;;;;;;;9.00;5.57;;;;;;;15.02;74.34;99923.78;1599712;88;21901;-72
2021/09/02 05:49:22;;;;;;;9.63;5.53;;;;;;;15.05;74.38;99931.80;1607642;88;21853;-73
2021/09/02 05:51:50;;;;;;;8.27;5.10;;;;;;;15.07;73.92;99933.63;1603384;87;21803;-72
2021/09/02 05:54:17;;;;;;;9.30;5.13;;;;;;;15.11;73.67;99932.74;1599539;88;22345;-72
2021/09/02 05:56:44;;;;;;;7.60;5.07;;;;;;;15.14;73.36;99933.48;1605718;86;21826;-72
2021/09/02 05:59:14;;;;;;;8.63;5.13;;;;;;;15.16;72.66;99927.23;1610262;87;22315;-71
2021/09/02 06:01:41;;;;;;;7.87;5.30;;;;;;;15.19;72.81;99926.63;1578077;88;21841;-71
2021/09/02 06:04:07;;;;;;;9.00;5.10;;;;;;;15.27;72.76;99931.04;1605611;87;21713;-72
2021/09/02 06:06:34;;;;;;;10.03;4.97;;;;;;;15.37;71.94;99940.25;1607157;88;22318;-71
2021/09/02 06:09:03;;;;;;;9.70;4.77;;;;;;;15.44;71.12;99924.48;1607839;88;21591;-72
2021/09/02 06:11:30;;;;;;;10.00;4.73;;;;;;;15.52;69.99;99928.33;1605957;86;21566;-73
2021/09/02 06:13:59;;;;;;;10.53;4.90;;;;;;;15.59;69.66;99928.14;1601311;88;21073;-72
2021/09/02 06:16:25;;;;;;;9.27;4.63;;;;;;;15.61;69.05;99942.10;1599431;88;21153;-71
2021/09/02 06:18:54;;;;;;;7.20;4.70;;;;;;;15.67;68.18;99942.26;1601257;88;21787;-72
2021/09/02 06:21:20;;;;;;;8.37;4.60;;;;;;;15.71;68.30;99933.02;1604842;88;21069;-72
2021/09/02 06:23:47;;;;;;;8.30;4.20;;;;;;;15.75;67.67;99944.76;1608380;88;21081;-72
2021/09/02 06:26:14;;;;;;;8.70;4.53;;;;;;;15.76;66.11;99948.24;1603660;88;21099;-71
2021/09/02 06:28:41;;;;;;;10.50;4.30;;;;;;;15.75;64.88;99965.51;1601607;88;21469;-71
2021/09/02 06:31:07;;;;;;;10.77;4.57;;;;;;;15.70;63.82;99948.38;1602636;87;21558;-72
2021/09/02 06:33:35;;;;;;;7.07;4.57;;;;;;;15.64;64.17;99952.81;1605274;87;21098;-72
2021/09/02 06:36:02;;;;;;;7.33;4.13;;;;;;;15.57;64.88;99942.47;1577501;89;21067;-72
2021/09/02 06:38:29;;;;;;;6.50;4.00;;;;;;;15.60;64.02;99952.63;1574544;89;21161;-70
2021/09/02 06:40:56;;;;;;;9.57;3.97;;;;;;;15.53;63.22;99963.03;1602059;88;21606;-71
2021/09/02 06:43:23;;;;;;;8.73;3.77;;;;;;;15.46;62.70;99963.45;1599378;88;21603;-72
2021/09/02 06:45:49;;;;;;;5.97;3.73;;;;;;;15.41;62.91;99978.91;1603108;87;21479;-73
2021/09/02 06:48:16;;;;;;;10.53;4.27;;;;;;;15.38;62.74;99984.34;1604723;88;21241;-74
2021/09/02 06:50:43;;;;;;;9.93;3.63;;;;;;;15.37;62.58;99971.99;1611947;87;21102;-73
2021/09/02 06:53:10;;;;;;;7.70;3.23;;;;;;;15.35;62.42;99972.83;1610455;88;21552;-72
2021/09/02 06:55:37;;;;;;;7.57;3.83;;;;;;;15.32;61.43;99992.83;1600947;88;21106;-73
2021/09/02 06:58:03;;;;;;;8.90;3.43;;;;;;;15.20;61.42;99975.32;1615372;87;20987;-72
2021/09/02 07:00:30;;;;;;;8.03;3.27;;;;;;;15.05;61.76;99990.98;1600644;88;21214;-72
2021/09/02 07:02:57;;;;;;;7.67;3.40;;;;;;;15.05;61.76;100008.45;1607093;88;21538;-72
2021/09/02 07:05:25;;;;;;;7.67;3.30;;;;;;;14.97;60.86;99997.31;1615686;87;21990;-73
2021/09/02 07:07:54;;;;;;;5.70;2.97;;;;;;;14.93;60.62;100012.43;1607607;88;21113;-72
2021/09/02 07:10:21;;;;;;;6.90;2.83;;;;;;;14.89;60.26;99999.89;1601888;88;32524;-72
2021/09/02 07:12:48;;;;;;;5.93;2.50;;;;;;;14.92;59.44;99995.27;1602131;88;22394;-71
2021/09/02 07:15:15;;;;;;;9.63;2.80;;;;;;;15.05;57.76;99993.66;1609660;88;22408;-72
2021/09/02 07:17:43;;;;;;;7.10;2.73;;;;;;;15.17;56.13;100004.72;1600552;88;21774;-72
2021/09/02 07:20:12;;;;;;;6.40;2.73;;;;;;;15.25;55.53;100006.69;1603016;86;21129;-71
2021/09/02 07:22:38;;;;;;;7.40;3.07;;;;;;;15.36;55.00;99993.80;1601108;88;21216;-72
2021/09/02 07:25:07;;;;;;;7.80;2.70;;;;;;;15.39;54.02;99991.30;1602161;87;21120;-73
2021/09/02 07:27:33;;;;;;;5.47;2.53;;;;;;;15.38;54.05;99987.03;1583230;88;21339;-72
2021/09/02 07:30:05;;;;;;;5.43;2.30;;;;;;;15.38;53.84;99983.55;1605011;86;21113;-80
2021/09/02 07:32:31;;;;;;;7.00;2.50;;;;;;;15.37;52.42;99996.77;1598355;88;21551;-81
2021/09/02 07:34:58;;;;;;;8.63;2.77;;;;;;;15.38;52.20;99976.82;1602316;86;20999;-84
2021/09/02 07:37:24;;;;;;;6.30;2.37;;;;;;;15.47;52.05;99987.91;1603723;87;21188;-83
2021/09/02 07:39:51;;;;;;;6.40;2.13;;;;;;;15.57;50.14;99964.00;1605164;87;22596;-84
2021/09/02 07:42:17;;;;;;;7.10;2.27;;;;;;;15.65;48.18;99976.73;1598226;88;21199;-80
2021/09/02 07:44:44;;;;;;;8.30;2.67;;;;;;;15.81;47.65;99979.89;1599272;88;21630;-86
2021/09/02 07:47:11;;;;;;;6.47;2.13;;;;;;;15.90;46.22;99978.63;1599512;88;21628;-81
2021/09/02 07:49:39;;;;;;;7.10;2.30;;;;;;;15.98;45.75;99978.42;1584178;88;21119;-80
2021/09/02 07:52:09;;;;;;;9.07;2.30;;;;;;;16.04;45.07;99982.03;1578554;89;21264;-79
2021/09/02 07:54:36;;;;;;;8.00;2.10;;;;;;;16.11;45.13;99971.61;1601573;88;21173;-78
2021/09/02 07:57:03;;;;;;;7.03;2.20;;;;;;;16.20;45.14;99970.88;1602200;88;21107;-77
2021/09/02 07:59:30;;;;;;;8.43;2.00;;;;;;;16.27;44.65;99976.63;1605598;88;21093;-80
2021/09/02 08:01:57;;;;;;;12.53;2.13;;;;;;;16.31;44.29;99986.46;1608617;88;21088;-80
2021/09/02 08:04:25;;;;;;;8.63;2.07;;;;;;;16.31;44.74;99989.16;1619733;87;21098;-78
2021/09/02 08:06:52;;;;;;;6.70;2.13;;;;;;;16.31;43.16;99997.24;1605064;88;21534;-79
2021/09/02 08:09:18;;;;;;;6.33;2.03;;;;;;;16.31;44.54;99973.55;1606412;88;21221;-81
2021/09/02 08:11:46;;;;;;;8.17;2.00;;;;;;;16.31;44.03;99996.45;1600056;88;21055;-80
2021/09/02 08:14:13;;;;;;;6.73;2.23;;;;;;;16.31;44.70;99991.06;1594633;88;21045;-79
2021/09/02 08:16:41;;;;;;;4.63;2.00;;;;;;;16.31;45.19;99998.59;1605810;87;21067;-79
2021/09/02 08:19:08;;;;;;;8.30;2.53;;;;;;;16.27;46.13;100017.05;1608588;87;21161;-80
2021/09/02 08:21:35;;;;;;;9.30;2.10;;;;;;;16.15;46.19;100008.16;1609197;88;21133;-79
2021/09/02 08:24:01;;;;;;;8.67;2.67;;;;;;;16.01;47.08;99994.77;1604409;88;21176;-81
2021/09/02 08:26:28;;;;;;;7.27;2.13;;;;;;;15.88;46.08;100019.30;1604200;87;21157;-81
2021/09/02 08:28:55;;;;;;;11.57;3.20;;;;;;;15.79;45.61;100000.93;1603259;88;21212;-81
2021/09/02 08:31:24;;;;;;;11.87;2.27;;;;;;;15.80;45.25;99994.47;1603807;88;22933;-79
2021/09/02 08:33:52;;;;;;;5.30;2.10;;;;;;;15.91;45.05;100002.54;1610793;87;21083;-78
2021/09/02 08:36:19;;;;;;;4.80;1.63;;;;;;;16.08;44.99;99977.61;1610070;88;21145;-80
2021/09/02 08:38:48;;;;;;;5.10;1.80;;;;;;;16.24;44.54;99981.28;1611106;86;21156;-80
2021/09/02 08:41:16;;;;;;;6.13;1.77;;;;;;;16.42;43.05;99984.32;1578892;88;21108;-81
2021/09/02 08:43:46;;;;;;;6.60;1.93;;;;;;;16.49;42.93;99986.58;1609249;86;21153;-83
2021/09/02 08:46:13;;;;;;;8.53;2.20;;;;;;;16.47;43.82;99974.73;1608450;88;21112;-77
2021/09/02 08:48:47;;;;;;;5.77;2.20;;;;;;;16.43;44.90;99984.55;1601682;88;22490;-82
2021/09/02 08:51:14;;;;;;;4.87;2.00;;;;;;;16.36;45.69;99990.39;1615981;87;21575;-80
2021/09/02 08:53:43;;;;;;;3.33;1.73;;;;;;;16.30;45.00;99988.13;1600833;86;21085;-75
2021/09/02 08:56:10;;;;;;;5.43;2.10;;;;;;;16.35;45.41;99990.69;1605943;88;22018;-75
2021/09/02 08:58:37;;;;;;;7.87;2.53;;;;;;;16.48;46.26;99974.97;1600424;88;21073;-76
2021/09/02 09:01:06;;;;;;;4.00;1.90;;;;;;;16.63;45.36;99989.95;1600649;88;21112;-74
2021/09/02 09:03:34;;;;;;;5.00;1.70;;;;;;;16.60;43.11;99987.32;1600876;87;21058;-75
2021/09/02 09:06:06;;;;;;;6.03;1.90;;;;;;;16.51;42.15;99987.83;1567152;89;21141;-75
2021/09/02 09:08:37;;;;;;;4.43;1.80;;;;;;;16.48;42.14;99976.31;1599415;88;21515;-74
2021/09/02 09:11:21;;;;;;;5.07;1.60;;;;;;;16.56;40.99;99985.02;1606573;88;21711;-75
2021/09/02 09:13:49;;;;;;;7.70;2.00;;;;;;;16.67;41.63;99977.44;1612407;87;21037;-74
2021/09/02 09:16:15;;;;;;;6.37;1.90;;;;;;;16.72;41.90;100004.83;1599265;88;21082;-75
2021/09/02 09:18:45;;;;;;;4.23;1.83;;;;;;;16.64;42.98;99963.22;1574299;89;21057;-74
2021/09/02 09:21:16;;;;;;;5.93;2.23;;;;;;;16.57;43.66;99980.41;1602183;88;21129;-74
2021/09/02 09:24:02;;;;;;;7.10;2.12;;;;;;;16.50;43.39;99989.50;1608507;87;21009;-74
2021/09/02 09:26:32;;;;;;;4.33;1.90;;;;;;;16.55;44.82;99982.08;1603810;87;21042;-75
2021/09/02 09:29:01;;;;;;;6.13;2.00;;;;;;;16.77;43.95;99981.23;1600589;88;21072;-74
2021/09/02 09:31:36;;;;;;;6.57;2.13;;;;;;;16.94;44.28;99966.20;1593510;88;21113;-74
2021/09/02 09:34:05;;;;;;;8.00;2.63;;;;;;;17.07;42.19;99977.42;1592929;87;21127;-72
2021/09/02 09:36:37;;;;;;;6.47;1.97;;;;;;;17.03;41.71;99979.95;1605575;86;21576;-74
2021/09/02 09:39:13;;;;;;;5.17;1.97;;;;;;;17.02;41.94;99983.77;1598490;88;21165;-76
2021/09/02 09:41:46;;;;;;;5.60;1.60;;;;;;;17.04;41.89;99977.48;1600073;88;21065;-74
2021/09/02 09:44:27;;;;;;;6.00;1.90;;;;;;;16.99;41.20;99984.40;1603313;87;21554;-74
2021/09/02 09:47:12;;;;;;;5.43;1.60;;;;;;;16.87;41.10;99996.33;1608891;88;21986;-73
2021/09/02 09:49:58;;;;;;;6.40;1.90;;;;;;;16.72;41.79;100002.14;1601381;88;21150;-75
2021/09/02 09:52:41;;;;;;;6.00;1.80;;;;;;;16.52;42.39;100002.92;1605116;88;21081;-75
2021/09/02 09:55:10;;;;;;;6.78;1.57;;;;;;;16.40;42.68;100012.92;1607970;88;21147;-74
2021/09/02 09:57:39;;;;;;;;;;;;;;;16.40;42.68;100012.92;1607917;88;21124;-75
2021/09/02 10:00:18;;;;;;;12.33;2.00;;;;;;;16.39;42.54;100030.76;1601955;88;21067;-76
2021/09/02 10:02:49;;;;;;;4.63;1.63;;;;;;;16.38;42.07;100008.94;1601678;88;21603;-75
2021/09/02 10:05:19;;;;;;;4.70;1.55;;;;;;;16.36;40.27;100006.56;1605258;88;21094;-74
2021/09/02 10:07:46;;;;;;;6.70;1.93;;;;;;;16.36;40.69;100021.94;1604471;88;21085;-74
2021/09/02 10:10:17;;;;;;;3.93;1.67;;;;;;;16.31;40.44;100003.98;1607690;87;21056;-75
2021/09/02 10:12:47;;;;;;;4.50;1.63;;;;;;;16.26;40.81;100014.11;1602393;88;21089;-74
2021/09/02 10:15:17;;;;;;;7.40;1.77;;;;;;;16.21;42.37;100005.59;1606876;88;21113;-73
2021/09/02 10:17:45;;;;;;;5.00;1.70;;;;;;;16.25;42.85;100030.81;1606641;86;22331;-74
2021/09/02 10:20:23;;;;;;;4.43;1.77;;;;;;;16.27;41.19;100007.61;1587534;88;21183;-74
2021/09/02 10:22:53;;;;;;;4.57;1.60;;;;;;;16.26;41.53;100017.60;1605949;88;21029;-72
2021/09/02 10:25:38;;;;;;;4.87;1.50;;;;;;;16.24;40.40;100016.31;1602395;88;21128;-73
2021/09/02 10:28:17;;;;;;;7.60;2.30;;;;;;;16.13;41.00;100017.13;1601957;88;21068;-74
2021/09/02 10:30:48;;;;;;;4.07;1.70;;;;;;;16.07;41.58;100021.03;1601339;88;21089;-74
2021/09/02 10:33:34;;;;;;;5.50;1.73;;;;;;;16.23;42.81;100028.20;1608266;87;21010;-73
2021/09/02 10:36:17;;;;;;;7.63;1.90;;;;;;;16.50;41.90;100019.95;1585382;88;21650;-74
2021/09/02 10:38:56;;;;;;;5.27;1.57;;;;;;;16.65;39.55;100015.51;1614997;88;21136;-73
2021/09/02 10:41:40;;;;;;;4.93;1.80;;;;;;;16.59;40.72;100022.14;1604491;88;21108;-73
2021/09/02 11:01:31;;;;;;;4.13;1.90;;;;;;;16.14;42.28;100053.73;1789906;78;22702;-74
2021/09/02 11:04:03;;;;;;;6.70;1.60;;;;;;;15.91;42.65;100081.20;1764787;81;21577;-74
2021/09/02 11:06:28;;;;;;;4.37;1.80;;;;;;;15.79;43.44;100071.50;1747492;80;21680;-74
2021/09/02 11:08:57;;;;;;;7.47;2.40;;;;;;;15.84;43.44;100074.88;1762611;79;21478;-74
2021/09/02 11:11:25;;;;;;;9.07;1.73;;;;;;;15.92;43.26;100067.97;1762544;79;20880;-75
2021/09/02 11:13:53;;;;;;;4.03;1.63;;;;;;;15.99;43.49;100068.37;1763509;79;21592;-75
2021/09/02 11:16:23;;;;;;;5.20;1.83;;;;;;;16.07;43.14;100070.87;1734842;81;21576;-75
2021/09/02 11:18:54;;;;;;;5.53;1.83;;;;;;;16.29;43.72;100066.84;1735899;80;21167;-73
2021/09/02 11:21:24;;;;;;;4.10;1.63;;;;;;;16.57;42.62;100070.17;1742511;80;21094;-74
2021/09/02 11:24:04;;;;;;;5.78;2.00;;;;;;;16.72;41.57;100073.05;1736801;81;21031;-74
2021/09/02 11:26:34;;;;;;;6.83;1.73;;;;;;;16.69;41.18;100082.31;1752170;80;21050;-74
2021/09/02 11:29:01;;;;;;;4.50;2.00;;;;;;;16.53;41.42;100079.20;1744981;81;21538;-73
2021/09/02 11:31:30;;;;;;;7.60;2.00;;;;;;;16.46;42.05;100093.11;1745062;80;21157;-73
2021/09/02 11:33:57;;;;;;;4.70;1.93;;;;;;;16.45;38.87;100083.97;1758421;80;20983;-73
2021/09/02 11:36:23;;;;;;;4.10;1.70;;;;;;;16.40;39.08;100094.33;1737338;80;21564;-74
2021/09/02 11:39:08;;;;;;;3.37;1.83;;;;;;;16.36;38.97;100083.93;1752117;80;21065;-73
2021/09/02 11:41:35;;;;;;;3.70;1.87;;;;;;;16.31;39.70;100083.48;1747706;80;21034;-74
2021/09/02 11:44:02;;;;;;;6.77;2.13;;;;;;;16.29;39.40;100093.00;1742364;80;22211;-74
2021/09/02 11:46:30;;;;;;;3.90;1.83;;;;;;;16.30;40.20;100082.45;1746325;80;21007;-73
2021/09/02 11:48:58;;;;;;;4.17;1.70;;;;;;;16.39;40.85;100077.37;1747642;80;21019;-74
2021/09/02 11:51:31;;;;;;;5.80;1.73;;;;;;;16.54;40.51;100077.53;1741018;81;21020;-74
2021/09/02 11:54:09;;;;;;;9.50;1.77;;;;;;;16.73;39.17;100083.27;1735269;82;21566;-74
2021/09/02 11:56:38;;;;;;;4.50;1.60;;;;;;;16.78;40.67;100138.44;1736653;82;21500;-73